KCPS Airport (St Louis Downtown) Information

FAA: CPS - ICAO: KCPS

KCPS Airport Location

State Illinois
County St Clair
City Cahokia/St Louis
KCPS Airport is 1 miles east of Cahokia/St Louis, IL.
Latitude 38-34-13.3000N
Longitude 090-09-18.3000W
Elevation 412ft

KCPS Airport METARs

METAR KCPS 060553Z AUTO VRB06KT 10SM CLR 31/23 A2987 RMK AO2 SLP108 T03060228 10350 20300 403780244 58003
Altimeter 29.87"
Temperature 30.6°C (87.1°F)
Wind 0° at 6KT
Clouds Skies are clear.
Visibility 10.0mi
Time observed: 2022-07-06T05:53:00Z

KCPS Airport Details

Status Operational
Activation April 1940
Ownership Public
Usage Public
Chart ST LOUIS
ATC on-site Yes
Beacon schedule sunset-sunrise
Beacon color clear green

KCPS Airport Contacts

Owner BI-STATE DEVELOPMENT AGENCY
Owner address 6100 ARCHVIEW DRIVE, CAHOKIA, IL 62206-1445
Owner phone 618-337-6060
Manager KEVIN G. WEIDNER
Manager address 6073 ROUTE 159, BUNKER HILL, IL 62014
Manager phone 618-585-3726

KCPS Airport (St Louis Downtown) Radio Frequencies

KCPS (Airport) Radio Frequencies

UNICOM 122.95
Common traffic advisory frequency (CTAF) 119.925